Time;durP1;ratioP1;P1;durP2;ratioP2;P2;SDS_P1;SDS_P2;PMS_P1;PMS_P2;Temp;Humidity;BMP_temperature;BMP_pressure;BME280_temperature;BME280_humidity;BME280_pressure;Samples;Min_cycle;Max_cycle;Signal;HPM_P1;HPM_P2
2023/05/20 20:18:53;;;;;;;;;;;;;;;15.43;64.59;101812.34;5936387;23;2798;-74
2023/05/20 20:21:20;;;;;;;;;;;;;;;15.42;64.57;101808.81;4976054;28;2373;-74
2023/05/20 20:23:47;;;;;;;;;;;;;;;15.42;64.59;101808.81;4962491;28;2063;-74
2023/05/20 20:26:13;;;;;;;;;;;;;;;15.42;64.67;101810.69;4959423;28;2300;-74
2023/05/20 20:28:40;;;;;;;;;;;;;;;15.41;64.70;101814.44;4961803;28;2258;-74
2023/05/20 20:31:06;;;;;;;;;;;;;;;15.42;64.78;101810.69;4961771;28;2158;-74
2023/05/20 20:33:33;;;;;;;;;;;;;;;15.41;64.70;101812.59;4961629;28;2523;-74
2023/05/20 20:36:01;;;;;;;;;;;;;;;15.42;64.78;101810.69;4961285;28;2181;-74
2023/05/20 20:38:27;;;;;;;;;;;;;;;15.41;64.75;101809.00;4961776;28;2193;-74
2023/05/20 20:40:54;;;;;;;;;;;;;;;15.40;64.80;101810.09;4960434;28;2237;-73
2023/05/20 20:43:21;;;;;;;;;;;;;;;15.40;64.86;101808.19;4961836;28;2380;-74
2023/05/20 20:45:49;;;;;;;;;;;;;;;15.38;64.79;101799.47;4959719;28;2239;-74
2023/05/20 20:48:17;;;;;;;;;;;;;;;15.40;64.81;101815.50;4963940;28;1756;-74
2023/05/20 20:50:44;;;;;;;;;;;;;;;15.39;64.79;101808.44;4962467;28;1320;-74
2023/05/20 20:53:11;;;;;;;;;;;;;;;15.39;64.89;101808.44;4962433;28;2140;-73
2023/05/20 20:55:38;;;;;;;;;;;;;;;15.39;64.88;101808.44;4964246;28;1044;-73
2023/05/20 20:58:05;;;;;;;;;;;;;;;15.37;64.85;101803.19;4963372;28;1067;-72
2023/05/20 21:00:32;;;;;;;;;;;;;;;15.37;64.83;101802.38;4963087;28;2153;-73
2023/05/20 21:02:59;;;;;;;;;;;;;;;15.36;64.96;101798.84;4962321;28;2172;-74
2023/05/20 21:05:27;;;;;;;;;;;;;;;15.36;64.90;101800.72;4963349;28;3371;-73
2023/05/20 21:07:58;;;;;;;;;;;;;;;15.35;64.99;101797.19;4962720;28;2181;-73
2023/05/20 21:10:27;;;;;;;;;;;;;;;15.35;64.99;101799.91;4961297;28;2185;-72
2023/05/20 21:12:54;;;;;;;;;;;;;;;15.35;64.90;101796.31;4962728;28;1239;-73
2023/05/20 21:15:20;;;;;;;;;;;;;;;15.35;64.96;101796.31;4961816;28;2304;-73
2023/05/20 21:17:47;;;;;;;;;;;;;;;15.35;64.99;101796.31;4961034;28;2206;-74
2023/05/20 21:20:14;;;;;;;;;;;;;;;15.35;64.87;101799.03;4950589;28;2126;-75
2023/05/20 21:22:40;;;;;;;;;;;;;;;15.34;64.89;101794.69;4944088;29;1210;-75
2023/05/20 21:25:07;;;;;;;;;;;;;;;15.32;65.01;101792.16;4927657;29;2113;-74
2023/05/20 21:27:33;;;;;;;;;;;;;;;15.31;64.97;101790.53;4943135;29;2169;-75
2023/05/20 21:30:00;;;;;;;;;;;;;;;15.32;65.05;101792.16;4937779;29;4931;-73
2023/05/20 21:32:26;;;;;;;;;;;;;;;15.31;65.00;101789.69;4941819;28;3283;-74
2023/05/20 21:34:53;;;;;;;;;;;;;;;15.31;65.02;101781.56;4920144;29;2876;-73
2023/05/20 21:37:19;;;;;;;;;;;;;;;15.31;65.08;101793.22;4941787;29;2287;-73
2023/05/20 21:39:46;;;;;;;;;;;;;;;15.29;65.00;101789.91;4941645;29;2183;-75
2023/05/20 21:42:12;;;;;;;;;;;;;;;15.29;64.83;101791.78;4930854;29;2204;-73
2023/05/20 21:44:39;;;;;;;;;;;;;;;15.28;65.00;101785.53;4941719;29;2188;-75
2023/05/20 21:47:06;;;;;;;;;;;;;;;15.27;64.91;101789.31;4926286;29;3404;-73
2023/05/20 21:49:32;;;;;;;;;;;;;;;15.27;64.94;101783.88;4925497;29;2272;-73
2023/05/20 21:51:59;;;;;;;;;;;;;;;15.27;64.78;101792.03;4936912;29;2717;-74
2023/05/20 21:54:25;;;;;;;;;;;;;;;15.25;64.83;101785.97;4936854;29;1705;-74
2023/05/20 21:56:52;;;;;;;;;;;;;;;15.26;64.89;101786.81;4933717;28;2465;-74
2023/05/20 21:59:19;;;;;;;;;;;;;;;15.24;64.89;101784.31;4935503;28;2695;-73
2023/05/20 22:01:45;;;;;;;;;;;;;;;15.24;64.82;101783.50;4928025;29;2224;-74
2023/05/20 22:04:12;;;;;;;;;;;;;;;15.23;64.77;101779.94;4930006;29;1838;-74
2023/05/20 22:06:38;;;;;;;;;;;;;;;15.23;64.76;101788.06;4946890;29;1965;-74
2023/05/20 22:09:05;;;;;;;;;;;;;;;15.21;64.74;101782.88;4947236;29;1528;-74
2023/05/20 22:11:32;;;;;;;;;;;;;;;15.21;64.83;101779.34;4938945;29;1745;-74
2023/05/20 22:13:58;;;;;;;;;;;;;;;15.20;64.72;101781.19;4939239;29;1771;-74
2023/05/20 22:16:25;;;;;;;;;;;;;;;15.19;64.77;101782.25;4941014;29;2057;-73
2023/05/20 22:18:55;;;;;;;;;;;;;;;15.18;64.76;101782.50;4937898;28;1965;-74
2023/05/20 22:21:24;;;;;;;;;;;;;;;15.18;64.75;101785.22;4942673;29;1856;-74
2023/05/20 22:23:50;;;;;;;;;;;;;;;15.16;64.66;101785.41;4943935;29;1765;-74
2023/05/20 22:26:18;;;;;;;;;;;;;;;15.16;64.69;101781.88;4921616;29;2050;-74
2023/05/20 22:28:45;;;;;;;;;;;;;;;15.15;64.63;101783.78;4925434;29;2150;-73
2023/05/20 22:31:12;;;;;;;;;;;;;;;15.14;64.69;101784.78;4939391;28;3796;-74
2023/05/20 22:33:40;;;;;;;;;;;;;;;15.14;64.69;101783.97;4938524;29;3522;-73
2023/05/20 22:36:06;;;;;;;;;;;;;;;15.12;64.71;101784.22;4940143;29;2108;-75
2023/05/20 22:38:34;;;;;;;;;;;;;;;15.12;64.66;101777.97;4939009;29;2717;-73
2023/05/20 22:41:01;;;;;;;;;;;;;;;15.12;64.72;101783.38;4938517;29;1757;-74
2023/05/20 22:43:27;;;;;;;;;;;;;;;15.10;64.64;101780.88;4938678;29;1717;-74
2023/05/20 22:45:54;;;;;;;;;;;;;;;15.08;64.58;101777.53;4936224;29;2037;-73
2023/05/20 22:48:22;;;;;;;;;;;;;;;15.08;64.42;101780.25;4942885;29;1747;-73
2023/05/20 22:50:48;;;;;;;;;;;;;;;15.08;64.62;101784.84;4938296;29;2646;-74
2023/05/20 22:53:15;;;;;;;;;;;;;;;14.64;64.54;101718.81;4939850;29;1755;-74
2023/05/20 22:55:42;;;;;;;;;;;;;;;15.05;64.70;101777.97;4937712;28;2021;-74
2023/05/20 22:58:08;;;;;;;;;;;;;;;15.05;64.62;101775.28;4922315;29;1746;-74
2023/05/20 23:00:35;;;;;;;;;;;;;;;15.04;64.59;101772.78;4938633;28;2658;-74
2023/05/20 23:03:02;;;;;;;;;;;;;;;15.03;64.63;101777.38;4941150;29;1832;-74
2023/05/20 23:05:29;;;;;;;;;;;;;;;15.02;64.62;101780.31;4938387;28;2202;-74
2023/05/20 23:07:56;;;;;;;;;;;;;;;15.01;64.58;101779.47;4918263;28;2100;-74
2023/05/20 23:10:24;;;;;;;;;;;;;;;15.01;64.54;101782.19;4937507;29;1731;-74
2023/05/20 23:12:50;;;;;;;;;;;;;;;15.00;64.51;101777.84;4922703;29;1807;-74
2023/05/20 23:15:17;;;;;;;;;;;;;;;14.99;64.56;101774.25;4936681;28;2132;-74
2023/05/20 23:17:43;;;;;;;;;;;;;;;14.97;64.42;101770.97;4941467;29;1681;-74
2023/05/20 23:20:10;;;;;;;;;;;;;;;14.96;64.53;101769.28;4942285;28;1717;-74
2023/05/20 23:22:37;;;;;;;;;;;;;;;14.95;64.52;101773.06;4924436;29;1770;-74
2023/05/20 23:25:04;;;;;;;;;;;;;;;14.94;64.41;101768.69;4938176;28;1997;-73
2023/05/20 23:27:31;;;;;;;;;;;;;;;14.93;64.52;101764.28;4936247;29;2206;-74
2023/05/20 23:29:57;;;;;;;;;;;;;;;14.93;64.47;101767.00;4937210;29;2230;-74
2023/05/20 23:32:24;;;;;;;;;;;;;;;14.92;64.34;101770.78;4944232;29;2258;-74
2023/05/20 23:34:52;;;;;;;;;;;;;;;14.91;64.40;101768.25;4930574;29;1073;-73
2023/05/20 23:37:18;;;;;;;;;;;;;;;14.90;64.45;101769.31;4944948;29;1072;-73
2023/05/20 23:39:45;;;;;;;;;;;;;;;14.89;64.36;101783.94;4945432;29;1038;-73
2023/05/20 23:42:11;;;;;;;;;;;;;;;14.88;64.44;101766.84;4935789;29;2091;-74
2023/05/20 23:44:38;;;;;;;;;;;;;;;14.87;64.37;101764.34;4942924;29;2187;-74
2023/05/20 23:47:06;;;;;;;;;;;;;;;14.86;64.30;101765.41;4942852;29;2006;-74
2023/05/20 23:49:32;;;;;;;;;;;;;;;14.85;64.47;101774.56;4928970;29;1096;-74
2023/05/20 23:52:00;;;;;;;;;;;;;;;14.85;64.33;101777.28;4945843;28;2148;-74
2023/05/20 23:54:26;;;;;;;;;;;;;;;14.84;64.23;101760.19;4944970;29;1002;-73
2023/05/20 23:56:54;;;;;;;;;;;;;;;14.82;64.18;101767.69;4944129;29;1057;-73
2023/05/20 23:59:20;;;;;;;;;;;;;;;14.81;64.05;101757.09;4939000;28;5009;-73
